sensor_id;sensor_type;location;lat;lon;timestamp;temperature;humidity
15997;DHT22;8103;51.340;12.326;2022-08-01T00:00:05;21.20;98.90
15997;DHT22;8103;51.340;12.326;2022-08-01T00:02:34;21.20;99.00
15997;DHT22;8103;51.340;12.326;2022-08-01T00:05:01;21.20;99.00
15997;DHT22;8103;51.340;12.326;2022-08-01T00:07:28;21.30;99.10
15997;DHT22;8103;51.340;12.326;2022-08-01T00:09:54;21.30;98.90
15997;DHT22;8103;51.340;12.326;2022-08-01T00:12:22;21.40;98.80
15997;DHT22;8103;51.340;12.326;2022-08-01T00:14:49;21.40;98.80
15997;DHT22;8103;51.340;12.326;2022-08-01T00:17:15;21.40;98.70
15997;DHT22;8103;51.340;12.326;2022-08-01T00:19:42;21.50;98.60
15997;DHT22;8103;51.340;12.326;2022-08-01T00:22:09;21.50;98.50
15997;DHT22;8103;51.340;12.326;2022-08-01T00:24:36;21.50;98.50
15997;DHT22;8103;51.340;12.326;2022-08-01T00:27:03;21.50;98.30
15997;DHT22;8103;51.340;12.326;2022-08-01T00:29:30;21.50;98.30
15997;DHT22;8103;51.340;12.326;2022-08-01T00:32:17;21.50;98.30
15997;DHT22;8103;51.340;12.326;2022-08-01T00:34:43;21.60;98.20
15997;DHT22;8103;51.340;12.326;2022-08-01T00:37:13;21.60;98.20
15997;DHT22;8103;51.340;12.326;2022-08-01T00:39:41;21.60;98.00
15997;DHT22;8103;51.340;12.326;2022-08-01T00:42:09;21.60;97.80
15997;DHT22;8103;51.340;12.326;2022-08-01T00:44:37;21.70;97.70
15997;DHT22;8103;51.340;12.326;2022-08-01T00:47:04;21.60;97.60
15997;DHT22;8103;51.340;12.326;2022-08-01T00:49:32;21.60;97.50
15997;DHT22;8103;51.340;12.326;2022-08-01T00:51:59;21.60;97.50
15997;DHT22;8103;51.340;12.326;2022-08-01T00:54:26;21.60;97.60
15997;DHT22;8103;51.340;12.326;2022-08-01T00:56:54;21.60;97.50
15997;DHT22;8103;51.340;12.326;2022-08-01T00:59:22;21.60;97.50
15997;DHT22;8103;51.340;12.326;2022-08-01T01:01:51;21.50;97.60
15997;DHT22;8103;51.340;12.326;2022-08-01T01:04:19;21.50;97.80
15997;DHT22;8103;51.340;12.326;2022-08-01T01:07:06;21.50;97.70
15997;DHT22;8103;51.340;12.326;2022-08-01T01:09:50;21.50;97.80
15997;DHT22;8103;51.340;12.326;2022-08-01T01:12:30;21.50;98.00
15997;DHT22;8103;51.340;12.326;2022-08-01T01:15:31;21.50;98.00
15997;DHT22;8103;51.340;12.326;2022-08-01T01:18:07;21.50;98.10
15997;DHT22;8103;51.340;12.326;2022-08-01T01:20:37;21.50;98.20
15997;DHT22;8103;51.340;12.326;2022-08-01T01:25:45;21.40;98.10
15997;DHT22;8103;51.340;12.326;2022-08-01T01:29:15;21.40;98.20
15997;DHT22;8103;51.340;12.326;2022-08-01T01:31:24;21.40;98.30
15997;DHT22;8103;51.340;12.326;2022-08-01T01:33:53;21.40;98.30
15997;DHT22;8103;51.340;12.326;2022-08-01T01:36:21;21.40;98.50
15997;DHT22;8103;51.340;12.326;2022-08-01T01:38:51;21.40;98.60
15997;DHT22;8103;51.340;12.326;2022-08-01T01:41:19;21.30;98.70
15997;DHT22;8103;51.340;12.326;2022-08-01T01:43:46;21.30;98.70
15997;DHT22;8103;51.340;12.326;2022-08-01T01:46:17;21.30;98.80
15997;DHT22;8103;51.340;12.326;2022-08-01T01:48:46;21.30;98.90
15997;DHT22;8103;51.340;12.326;2022-08-01T01:51:15;21.30;98.90
15997;DHT22;8103;51.340;12.326;2022-08-01T01:53:43;21.30;99.00
15997;DHT22;8103;51.340;12.326;2022-08-01T01:56:11;21.30;98.90
15997;DHT22;8103;51.340;12.326;2022-08-01T01:58:41;21.30;99.00
15997;DHT22;8103;51.340;12.326;2022-08-01T02:01:09;21.20;98.90
15997;DHT22;8103;51.340;12.326;2022-08-01T02:03:42;21.20;99.00
15997;DHT22;8103;51.340;12.326;2022-08-01T02:06:12;21.20;99.00
15997;DHT22;8103;51.340;12.326;2022-08-01T02:08:42;21.20;98.90
15997;DHT22;8103;51.340;12.326;2022-08-01T02:11:09;21.10;98.90
15997;DHT22;8103;51.340;12.326;2022-08-01T02:13:53;21.10;99.00
15997;DHT22;8103;51.340;12.326;2022-08-01T02:16:23;21.10;99.00
15997;DHT22;8103;51.340;12.326;2022-08-01T02:18:50;21.10;99.10
15997;DHT22;8103;51.340;12.326;2022-08-01T02:21:23;21.10;99.00
15997;DHT22;8103;51.340;12.326;2022-08-01T02:23:52;21.10;99.10
15997;DHT22;8103;51.340;12.326;2022-08-01T02:26:21;21.10;99.20
15997;DHT22;8103;51.340;12.326;2022-08-01T02:29:05;21.10;99.30
15997;DHT22;8103;51.340;12.326;2022-08-01T02:31:35;21.00;99.30
15997;DHT22;8103;51.340;12.326;2022-08-01T02:34:07;21.00;99.30
15997;DHT22;8103;51.340;12.326;2022-08-01T02:36:36;20.90;99.50
15997;DHT22;8103;51.340;12.326;2022-08-01T02:39:08;20.90;99.70
15997;DHT22;8103;51.340;12.326;2022-08-01T02:41:39;20.90;99.80
15997;DHT22;8103;51.340;12.326;2022-08-01T02:44:09;20.90;99.90
15997;DHT22;8103;51.340;12.326;2022-08-01T02:46:39;20.80;99.90
15997;DHT22;8103;51.340;12.326;2022-08-01T02:49:09;20.90;99.90
15997;DHT22;8103;51.340;12.326;2022-08-01T02:51:38;20.90;99.90
15997;DHT22;8103;51.340;12.326;2022-08-01T02:54:08;20.90;99.90
15997;DHT22;8103;51.340;12.326;2022-08-01T02:56:36;20.90;99.90
15997;DHT22;8103;51.340;12.326;2022-08-01T02:59:09;20.80;99.90
15997;DHT22;8103;51.340;12.326;2022-08-01T03:01:39;20.80;99.90
15997;DHT22;8103;51.340;12.326;2022-08-01T03:04:07;20.80;99.90
15997;DHT22;8103;51.340;12.326;2022-08-01T03:06:35;20.70;99.90
15997;DHT22;8103;51.340;12.326;2022-08-01T03:09:04;20.70;99.90
15997;DHT22;8103;51.340;12.326;2022-08-01T03:11:32;20.70;99.90
15997;DHT22;8103;51.340;12.326;2022-08-01T03:14:01;20.80;99.90
15997;DHT22;8103;51.340;12.326;2022-08-01T03:16:30;20.70;99.90
15997;DHT22;8103;51.340;12.326;2022-08-01T03:18:58;20.80;99.90
15997;DHT22;8103;51.340;12.326;2022-08-01T03:21:28;20.80;99.90
15997;DHT22;8103;51.340;12.326;2022-08-01T03:23:58;20.70;99.90
15997;DHT22;8103;51.340;12.326;2022-08-01T03:26:31;20.70;99.90
15997;DHT22;8103;51.340;12.326;2022-08-01T03:29:04;20.70;99.90
15997;DHT22;8103;51.340;12.326;2022-08-01T03:31:35;20.70;99.90
15997;DHT22;8103;51.340;12.326;2022-08-01T03:34:03;20.70;99.90
15997;DHT22;8103;51.340;12.326;2022-08-01T03:36:32;20.60;99.90
15997;DHT22;8103;51.340;12.326;2022-08-01T03:39:02;20.60;99.90
15997;DHT22;8103;51.340;12.326;2022-08-01T03:41:35;20.60;99.90
15997;DHT22;8103;51.340;12.326;2022-08-01T03:44:10;20.60;99.90
15997;DHT22;8103;51.340;12.326;2022-08-01T03:46:58;20.60;99.90
15997;DHT22;8103;51.340;12.326;2022-08-01T03:49:30;20.60;99.90
15997;DHT22;8103;51.340;12.326;2022-08-01T03:52:00;20.60;99.90
15997;DHT22;8103;51.340;12.326;2022-08-01T03:54:33;20.60;99.90
15997;DHT22;8103;51.340;12.326;2022-08-01T03:57:01;20.60;99.90
15997;DHT22;8103;51.340;12.326;2022-08-01T03:59:29;20.60;99.90
15997;DHT22;8103;51.340;12.326;2022-08-01T04:01:57;20.70;99.90
15997;DHT22;8103;51.340;12.326;2022-08-01T04:04:24;20.60;99.90
15997;DHT22;8103;51.340;12.326;2022-08-01T04:06:52;20.60;99.90
15997;DHT22;8103;51.340;12.326;2022-08-01T04:09:21;20.50;99.90
15997;DHT22;8103;51.340;12.326;2022-08-01T04:11:48;20.50;99.90
15997;DHT22;8103;51.340;12.326;2022-08-01T04:14:15;20.50;99.90
15997;DHT22;8103;51.340;12.326;2022-08-01T04:16:42;20.50;99.90
15997;DHT22;8103;51.340;12.326;2022-08-01T04:19:08;20.50;99.90
15997;DHT22;8103;51.340;12.326;2022-08-01T04:21:35;20.50;99.90
15997;DHT22;8103;51.340;12.326;2022-08-01T04:24:12;20.50;99.90
15997;DHT22;8103;51.340;12.326;2022-08-01T04:26:41;20.50;99.90
15997;DHT22;8103;51.340;12.326;2022-08-01T04:29:10;20.60;99.90
15997;DHT22;8103;51.340;12.326;2022-08-01T04:31:42;20.60;99.90
15997;DHT22;8103;51.340;12.326;2022-08-01T04:34:12;20.60;99.90
15997;DHT22;8103;51.340;12.326;2022-08-01T04:36:41;20.70;99.90
15997;DHT22;8103;51.340;12.326;2022-08-01T04:39:09;20.70;99.90
15997;DHT22;8103;51.340;12.326;2022-08-01T04:41:37;20.70;99.90
15997;DHT22;8103;51.340;12.326;2022-08-01T04:44:05;20.70;99.90
15997;DHT22;8103;51.340;12.326;2022-08-01T04:46:33;20.70;99.90
15997;DHT22;8103;51.340;12.326;2022-08-01T04:49:01;20.70;99.90
15997;DHT22;8103;51.340;12.326;2022-08-01T04:51:28;20.70;99.90
15997;DHT22;8103;51.340;12.326;2022-08-01T04:53:55;20.70;99.90
15997;DHT22;8103;51.340;12.326;2022-08-01T04:56:24;20.70;99.90
15997;DHT22;8103;51.340;12.326;2022-08-01T04:58:50;20.70;99.90
15997;DHT22;8103;51.340;12.326;2022-08-01T05:01:48;20.70;99.90
15997;DHT22;8103;51.340;12.326;2022-08-01T05:04:15;20.70;99.90
15997;DHT22;8103;51.340;12.326;2022-08-01T05:06:42;20.70;99.90
15997;DHT22;8103;51.340;12.326;2022-08-01T05:09:09;20.80;99.90
15997;DHT22;8103;51.340;12.326;2022-08-01T05:11:36;20.80;99.90
15997;DHT22;8103;51.340;12.326;2022-08-01T05:14:03;20.90;99.90
15997;DHT22;8103;51.340;12.326;2022-08-01T05:16:29;21.00;99.90
15997;DHT22;8103;51.340;12.326;2022-08-01T05:18:57;21.00;99.90
15997;DHT22;8103;51.340;12.326;2022-08-01T05:21:23;21.00;99.90
15997;DHT22;8103;51.340;12.326;2022-08-01T05:23:50;21.00;99.90
15997;DHT22;8103;51.340;12.326;2022-08-01T05:26:17;20.90;99.90
15997;DHT22;8103;51.340;12.326;2022-08-01T05:28:44;20.90;99.90
15997;DHT22;8103;51.340;12.326;2022-08-01T05:31:11;20.90;99.90
15997;DHT22;8103;51.340;12.326;2022-08-01T05:33:37;21.00;99.90
15997;DHT22;8103;51.340;12.326;2022-08-01T05:36:04;21.00;99.90
15997;DHT22;8103;51.340;12.326;2022-08-01T05:38:31;21.10;99.90
15997;DHT22;8103;51.340;12.326;2022-08-01T05:40:58;21.30;99.90
15997;DHT22;8103;51.340;12.326;2022-08-01T05:43:25;21.40;99.90
15997;DHT22;8103;51.340;12.326;2022-08-01T05:45:54;21.50;99.90
15997;DHT22;8103;51.340;12.326;2022-08-01T05:48:21;21.60;99.90
15997;DHT22;8103;51.340;12.326;2022-08-01T05:50:47;21.70;99.90
15997;DHT22;8103;51.340;12.326;2022-08-01T05:53:14;21.70;99.90
15997;DHT22;8103;51.340;12.326;2022-08-01T05:55:41;21.80;99.90
15997;DHT22;8103;51.340;12.326;2022-08-01T05:58:08;21.80;99.90
15997;DHT22;8103;51.340;12.326;2022-08-01T06:00:37;21.90;99.90
15997;DHT22;8103;51.340;12.326;2022-08-01T06:03:04;22.10;99.90
15997;DHT22;8103;51.340;12.326;2022-08-01T06:05:31;22.10;99.90
15997;DHT22;8103;51.340;12.326;2022-08-01T06:07:57;22.20;99.90
15997;DHT22;8103;51.340;12.326;2022-08-01T06:10:24;22.10;99.90
15997;DHT22;8103;51.340;12.326;2022-08-01T06:12:51;22.10;99.90
15997;DHT22;8103;51.340;12.326;2022-08-01T06:15:18;21.90;99.90
15997;DHT22;8103;51.340;12.326;2022-08-01T06:17:45;21.90;99.90
15997;DHT22;8103;51.340;12.326;2022-08-01T06:20:12;21.90;99.90
15997;DHT22;8103;51.340;12.326;2022-08-01T06:22:39;22.00;99.90
15997;DHT22;8103;51.340;12.326;2022-08-01T06:25:07;22.10;99.90
15997;DHT22;8103;51.340;12.326;2022-08-01T06:27:34;22.20;99.90
15997;DHT22;8103;51.340;12.326;2022-08-01T06:30:03;22.20;99.90
15997;DHT22;8103;51.340;12.326;2022-08-01T06:32:30;22.20;99.90
15997;DHT22;8103;51.340;12.326;2022-08-01T06:34:57;22.10;99.90
15997;DHT22;8103;51.340;12.326;2022-08-01T06:37:29;22.10;99.90
15997;DHT22;8103;51.340;12.326;2022-08-01T06:40:07;22.10;99.90
15997;DHT22;8103;51.340;12.326;2022-08-01T06:42:39;22.20;99.90
15997;DHT22;8103;51.340;12.326;2022-08-01T06:45:08;22.20;99.90
15997;DHT22;8103;51.340;12.326;2022-08-01T06:47:36;22.30;99.90
15997;DHT22;8103;51.340;12.326;2022-08-01T06:50:05;22.30;99.90
15997;DHT22;8103;51.340;12.326;2022-08-01T06:52:32;22.40;99.90
15997;DHT22;8103;51.340;12.326;2022-08-01T06:54:59;22.40;99.90
15997;DHT22;8103;51.340;12.326;2022-08-01T06:57:26;22.40;99.90
15997;DHT22;8103;51.340;12.326;2022-08-01T06:59:54;22.30;99.90
15997;DHT22;8103;51.340;12.326;2022-08-01T07:02:22;22.40;99.90
15997;DHT22;8103;51.340;12.326;2022-08-01T07:04:49;22.30;99.90
15997;DHT22;8103;51.340;12.326;2022-08-01T07:07:16;22.30;99.90
15997;DHT22;8103;51.340;12.326;2022-08-01T07:09:43;22.30;99.90
15997;DHT22;8103;51.340;12.326;2022-08-01T07:12:10;22.50;99.90
15997;DHT22;8103;51.340;12.326;2022-08-01T07:14:37;22.90;99.90
15997;DHT22;8103;51.340;12.326;2022-08-01T07:17:04;23.10;99.90
15997;DHT22;8103;51.340;12.326;2022-08-01T07:19:31;23.20;99.90
15997;DHT22;8103;51.340;12.326;2022-08-01T07:21:58;23.30;99.90
15997;DHT22;8103;51.340;12.326;2022-08-01T07:24:25;23.50;99.90
15997;DHT22;8103;51.340;12.326;2022-08-01T07:26:52;23.60;99.90
15997;DHT22;8103;51.340;12.326;2022-08-01T07:29:22;23.70;99.90
15997;DHT22;8103;51.340;12.326;2022-08-01T07:31:49;23.90;99.90
15997;DHT22;8103;51.340;12.326;2022-08-01T07:34:16;24.00;99.90
15997;DHT22;8103;51.340;12.326;2022-08-01T07:36:43;24.00;99.90
15997;DHT22;8103;51.340;12.326;2022-08-01T07:39:10;24.00;99.90
15997;DHT22;8103;51.340;12.326;2022-08-01T07:41:37;24.00;99.90
15997;DHT22;8103;51.340;12.326;2022-08-01T07:44:11;24.10;99.90
15997;DHT22;8103;51.340;12.326;2022-08-01T07:46:39;24.10;99.70
15997;DHT22;8103;51.340;12.326;2022-08-01T07:49:06;24.00;99.90
15997;DHT22;8103;51.340;12.326;2022-08-01T07:51:33;23.80;99.90
15997;DHT22;8103;51.340;12.326;2022-08-01T07:54:00;23.60;99.90
15997;DHT22;8103;51.340;12.326;2022-08-01T07:56:27;23.40;99.90
15997;DHT22;8103;51.340;12.326;2022-08-01T07:58:54;23.30;99.90
15997;DHT22;8103;51.340;12.326;2022-08-01T08:01:20;23.20;99.90
15997;DHT22;8103;51.340;12.326;2022-08-01T08:03:47;23.20;99.90
15997;DHT22;8103;51.340;12.326;2022-08-01T08:06:14;23.20;99.90
15997;DHT22;8103;51.340;12.326;2022-08-01T08:08:41;23.30;99.90
15997;DHT22;8103;51.340;12.326;2022-08-01T08:11:08;23.40;99.90
15997;DHT22;8103;51.340;12.326;2022-08-01T08:13:37;23.40;99.90
15997;DHT22;8103;51.340;12.326;2022-08-01T08:16:04;23.50;99.90
15997;DHT22;8103;51.340;12.326;2022-08-01T08:18:32;23.70;99.90
15997;DHT22;8103;51.340;12.326;2022-08-01T08:20:58;24.20;99.90
15997;DHT22;8103;51.340;12.326;2022-08-01T08:23:30;25.00;99.90
15997;DHT22;8103;51.340;12.326;2022-08-01T08:26:15;25.90;98.30
15997;DHT22;8103;51.340;12.326;2022-08-01T08:28:42;26.40;95.90
15997;DHT22;8103;51.340;12.326;2022-08-01T08:31:09;26.70;94.00
15997;DHT22;8103;51.340;12.326;2022-08-01T08:33:51;26.90;93.10
15997;DHT22;8103;51.340;12.326;2022-08-01T08:36:18;26.90;92.60
15997;DHT22;8103;51.340;12.326;2022-08-01T08:38:45;26.90;91.80
15997;DHT22;8103;51.340;12.326;2022-08-01T08:41:12;26.80;91.50
15997;DHT22;8103;51.340;12.326;2022-08-01T08:43:43;26.60;91.20
15997;DHT22;8103;51.340;12.326;2022-08-01T08:46:11;26.40;91.10
15997;DHT22;8103;51.340;12.326;2022-08-01T08:48:41;26.20;90.30
15997;DHT22;8103;51.340;12.326;2022-08-01T08:51:10;26.00;90.80
15997;DHT22;8103;51.340;12.326;2022-08-01T08:53:41;26.10;91.00
15997;DHT22;8103;51.340;12.326;2022-08-01T08:56:13;26.40;90.60
15997;DHT22;8103;51.340;12.326;2022-08-01T08:58:42;26.60;89.70
15997;DHT22;8103;51.340;12.326;2022-08-01T09:01:12;26.80;88.90
15997;DHT22;8103;51.340;12.326;2022-08-01T09:03:43;27.00;88.10
15997;DHT22;8103;51.340;12.326;2022-08-01T09:06:11;27.00;87.00
15997;DHT22;8103;51.340;12.326;2022-08-01T09:08:37;27.00;87.30
15997;DHT22;8103;51.340;12.326;2022-08-01T09:11:04;26.90;85.50
15997;DHT22;8103;51.340;12.326;2022-08-01T09:13:31;26.90;85.10
15997;DHT22;8103;51.340;12.326;2022-08-01T09:15:58;26.60;85.00
15997;DHT22;8103;51.340;12.326;2022-08-01T09:18:39;26.50;86.20
15997;DHT22;8103;51.340;12.326;2022-08-01T09:21:20;26.60;85.60
15997;DHT22;8103;51.340;12.326;2022-08-01T09:23:50;27.10;84.50
15997;DHT22;8103;51.340;12.326;2022-08-01T09:26:21;27.60;81.20
15997;DHT22;8103;51.340;12.326;2022-08-01T09:28:54;28.00;78.80
15997;DHT22;8103;51.340;12.326;2022-08-01T09:31:21;28.30;76.80
15997;DHT22;8103;51.340;12.326;2022-08-01T09:33:53;28.40;76.10
15997;DHT22;8103;51.340;12.326;2022-08-01T09:36:23;28.20;76.30
15997;DHT22;8103;51.340;12.326;2022-08-01T09:38:52;27.60;78.20
15997;DHT22;8103;51.340;12.326;2022-08-01T09:41:29;27.20;80.00
15997;DHT22;8103;51.340;12.326;2022-08-01T09:44:03;27.00;81.20
15997;DHT22;8103;51.340;12.326;2022-08-01T09:46:30;26.70;83.20
15997;DHT22;8103;51.340;12.326;2022-08-01T09:49:05;26.50;84.50
15997;DHT22;8103;51.340;12.326;2022-08-01T09:51:38;26.80;84.40
15997;DHT22;8103;51.340;12.326;2022-08-01T09:54:33;27.40;80.50
15997;DHT22;8103;51.340;12.326;2022-08-01T09:57:14;28.70;75.30
15997;DHT22;8103;51.340;12.326;2022-08-01T09:59:43;29.50;71.60
15997;DHT22;8103;51.340;12.326;2022-08-01T10:02:37;29.90;69.20
15997;DHT22;8103;51.340;12.326;2022-08-01T10:05:06;29.80;68.30
15997;DHT22;8103;51.340;12.326;2022-08-01T10:07:35;29.50;67.40
15997;DHT22;8103;51.340;12.326;2022-08-01T10:10:14;28.90;68.50
15997;DHT22;8103;51.340;12.326;2022-08-01T10:12:42;28.60;70.40
15997;DHT22;8103;51.340;12.326;2022-08-01T10:15:10;28.40;71.20
15997;DHT22;8103;51.340;12.326;2022-08-01T10:17:39;28.60;71.00
15997;DHT22;8103;51.340;12.326;2022-08-01T10:20:22;29.70;68.10
15997;DHT22;8103;51.340;12.326;2022-08-01T10:22:59;31.60;60.60
15997;DHT22;8103;51.340;12.326;2022-08-01T10:25:29;32.60;55.50
15997;DHT22;8103;51.340;12.326;2022-08-01T10:28:16;33.10;53.10
15997;DHT22;8103;51.340;12.326;2022-08-01T10:30:47;32.60;52.60
15997;DHT22;8103;51.340;12.326;2022-08-01T10:33:15;32.60;52.60
15997;DHT22;8103;51.340;12.326;2022-08-01T10:35:46;32.90;52.30
15997;DHT22;8103;51.340;12.326;2022-08-01T10:38:14;33.50;50.30
15997;DHT22;8103;51.340;12.326;2022-08-01T10:40:42;34.40;48.10
15997;DHT22;8103;51.340;12.326;2022-08-01T10:43:16;35.60;46.10
15997;DHT22;8103;51.340;12.326;2022-08-01T10:45:47;35.90;44.70
15997;DHT22;8103;51.340;12.326;2022-08-01T10:48:19;35.60;44.50
15997;DHT22;8103;51.340;12.326;2022-08-01T10:50:49;35.90;43.90
15997;DHT22;8103;51.340;12.326;2022-08-01T10:53:20;37.00;42.30
15997;DHT22;8103;51.340;12.326;2022-08-01T10:58:27;37.80;39.70
15997;DHT22;8103;51.340;12.326;2022-08-01T11:03:42;38.60;38.40
15997;DHT22;8103;51.340;12.326;2022-08-01T11:09:23;36.90;39.60
15997;DHT22;8103;51.340;12.326;2022-08-01T11:12:06;35.30;42.00
15997;DHT22;8103;51.340;12.326;2022-08-01T11:17:36;34.70;44.20
15997;DHT22;8103;51.340;12.326;2022-08-01T11:20:12;35.70;42.50
15997;DHT22;8103;51.340;12.326;2022-08-01T11:23:14;37.10;40.40
15997;DHT22;8103;51.340;12.326;2022-08-01T11:28:29;38.00;37.20
15997;DHT22;8103;51.340;12.326;2022-08-01T11:39:10;41.90;31.70
15997;DHT22;8103;51.340;12.326;2022-08-01T11:41:40;40.10;33.50
15997;DHT22;8103;51.340;12.326;2022-08-01T11:44:20;37.80;36.40
15997;DHT22;8103;51.340;12.326;2022-08-01T11:47:04;37.30;38.00
15997;DHT22;8103;51.340;12.326;2022-08-01T11:49:45;38.50;36.70
15997;DHT22;8103;51.340;12.326;2022-08-01T11:52:24;39.60;35.50
15997;DHT22;8103;51.340;12.326;2022-08-01T11:55:06;41.00;34.10
15997;DHT22;8103;51.340;12.326;2022-08-01T11:57:36;42.30;32.70
15997;DHT22;8103;51.340;12.326;2022-08-01T12:02:41;42.90;33.60
15997;DHT22;8103;51.340;12.326;2022-08-01T12:05:13;44.00;31.40
15997;DHT22;8103;51.340;12.326;2022-08-01T12:07:42;42.40;31.70
15997;DHT22;8103;51.340;12.326;2022-08-01T12:10:13;41.00;34.10
15997;DHT22;8103;51.340;12.326;2022-08-01T12:12:49;40.30;35.10
15997;DHT22;8103;51.340;12.326;2022-08-01T12:15:17;39.30;36.50
15997;DHT22;8103;51.340;12.326;2022-08-01T12:17:49;38.30;37.80
15997;DHT22;8103;51.340;12.326;2022-08-01T12:20:29;38.50;38.20
15997;DHT22;8103;51.340;12.326;2022-08-01T12:22:59;38.80;37.50
15997;DHT22;8103;51.340;12.326;2022-08-01T12:25:28;38.00;38.00
15997;DHT22;8103;51.340;12.326;2022-08-01T12:28:08;37.50;39.30
15997;DHT22;8103;51.340;12.326;2022-08-01T12:30:37;37.60;39.00
15997;DHT22;8103;51.340;12.326;2022-08-01T12:33:08;38.60;38.30
15997;DHT22;8103;51.340;12.326;2022-08-01T12:35:36;40.40;35.90
15997;DHT22;8103;51.340;12.326;2022-08-01T12:38:16;40.20;34.70
15997;DHT22;8103;51.340;12.326;2022-08-01T12:40:45;38.60;36.30
15997;DHT22;8103;51.340;12.326;2022-08-01T12:43:18;37.40;38.40
15997;DHT22;8103;51.340;12.326;2022-08-01T12:46:00;36.50;40.10
15997;DHT22;8103;51.340;12.326;2022-08-01T12:48:28;37.90;39.00
15997;DHT22;8103;51.340;12.326;2022-08-01T12:50:57;39.40;35.70
15997;DHT22;8103;51.340;12.326;2022-08-01T12:53:27;38.90;35.70
15997;DHT22;8103;51.340;12.326;2022-08-01T12:56:05;38.20;36.70
15997;DHT22;8103;51.340;12.326;2022-08-01T12:58:34;37.30;38.00
15997;DHT22;8103;51.340;12.326;2022-08-01T13:01:06;36.70;39.50
15997;DHT22;8103;51.340;12.326;2022-08-01T13:03:36;37.60;38.60
15997;DHT22;8103;51.340;12.326;2022-08-01T13:06:11;37.90;37.80
15997;DHT22;8103;51.340;12.326;2022-08-01T13:08:38;38.60;37.20
15997;DHT22;8103;51.340;12.326;2022-08-01T13:11:10;39.00;36.10
15997;DHT22;8103;51.340;12.326;2022-08-01T13:13:48;38.60;36.30
15997;DHT22;8103;51.340;12.326;2022-08-01T13:16:21;37.30;37.70
15997;DHT22;8103;51.340;12.326;2022-08-01T13:18:56;36.40;39.70
15997;DHT22;8103;51.340;12.326;2022-08-01T13:21:28;37.00;39.90
15997;DHT22;8103;51.340;12.326;2022-08-01T13:24:10;38.90;37.80
15997;DHT22;8103;51.340;12.326;2022-08-01T13:26:52;39.50;36.10
15997;DHT22;8103;51.340;12.326;2022-08-01T13:29:21;38.60;37.20
15997;DHT22;8103;51.340;12.326;2022-08-01T13:31:50;38.40;38.00
15997;DHT22;8103;51.340;12.326;2022-08-01T13:34:33;38.70;38.00
15997;DHT22;8103;51.340;12.326;2022-08-01T13:37:01;40.80;35.50
15997;DHT22;8103;51.340;12.326;2022-08-01T13:39:29;42.00;33.20
15997;DHT22;8103;51.340;12.326;2022-08-01T13:42:15;42.60;31.70
15997;DHT22;8103;51.340;12.326;2022-08-01T13:44:44;43.80;30.60
15997;DHT22;8103;51.340;12.326;2022-08-01T13:47:12;44.00;30.10
15997;DHT22;8103;51.340;12.326;2022-08-01T13:49:41;44.30;29.60
15997;DHT22;8103;51.340;12.326;2022-08-01T13:52:10;43.30;30.20
15997;DHT22;8103;51.340;12.326;2022-08-01T13:54:37;42.40;31.30
15997;DHT22;8103;51.340;12.326;2022-08-01T13:57:13;41.10;32.30
15997;DHT22;8103;51.340;12.326;2022-08-01T13:59:40;39.20;34.50
15997;DHT22;8103;51.340;12.326;2022-08-01T14:02:07;38.10;36.70
15997;DHT22;8103;51.340;12.326;2022-08-01T14:04:37;38.40;36.70
15997;DHT22;8103;51.340;12.326;2022-08-01T14:07:04;38.90;35.60
15997;DHT22;8103;51.340;12.326;2022-08-01T14:09:36;38.40;35.80
15997;DHT22;8103;51.340;12.326;2022-08-01T14:12:03;37.70;36.30
15997;DHT22;8103;51.340;12.326;2022-08-01T14:14:30;37.10;36.90
15997;DHT22;8103;51.340;12.326;2022-08-01T14:16:57;36.40;38.00
15997;DHT22;8103;51.340;12.326;2022-08-01T14:19:24;36.00;39.30
15997;DHT22;8103;51.340;12.326;2022-08-01T14:22:04;36.80;39.20
15997;DHT22;8103;51.340;12.326;2022-08-01T14:24:31;38.40;36.80
15997;DHT22;8103;51.340;12.326;2022-08-01T14:26:58;39.70;35.00
15997;DHT22;8103;51.340;12.326;2022-08-01T14:29:25;40.00;34.60
15997;DHT22;8103;51.340;12.326;2022-08-01T14:31:52;40.40;33.70
15997;DHT22;8103;51.340;12.326;2022-08-01T14:34:18;40.20;33.80
15997;DHT22;8103;51.340;12.326;2022-08-01T14:36:47;40.40;33.20
15997;DHT22;8103;51.340;12.326;2022-08-01T14:39:13;40.70;32.90
15997;DHT22;8103;51.340;12.326;2022-08-01T14:41:41;41.00;32.40
15997;DHT22;8103;51.340;12.326;2022-08-01T14:44:07;40.90;32.40
15997;DHT22;8103;51.340;12.326;2022-08-01T14:46:35;41.30;32.00
15997;DHT22;8103;51.340;12.326;2022-08-01T14:49:02;42.30;31.10
15997;DHT22;8103;51.340;12.326;2022-08-01T14:51:30;42.90;30.10
15997;DHT22;8103;51.340;12.326;2022-08-01T14:53:59;43.10;29.90
15997;DHT22;8103;51.340;12.326;2022-08-01T14:56:26;43.30;29.60
15997;DHT22;8103;51.340;12.326;2022-08-01T14:58:56;43.50;29.10
15997;DHT22;8103;51.340;12.326;2022-08-01T15:01:23;43.00;29.10
15997;DHT22;8103;51.340;12.326;2022-08-01T15:03:50;42.50;29.60
15997;DHT22;8103;51.340;12.326;2022-08-01T15:06:17;42.50;29.60
15997;DHT22;8103;51.340;12.326;2022-08-01T15:08:44;41.30;30.60
15997;DHT22;8103;51.340;12.326;2022-08-01T15:11:11;39.50;33.60
15997;DHT22;8103;51.340;12.326;2022-08-01T15:13:41;39.30;33.80
15997;DHT22;8103;51.340;12.326;2022-08-01T15:16:10;39.30;33.90
15997;DHT22;8103;51.340;12.326;2022-08-01T15:18:39;39.30;34.10
15997;DHT22;8103;51.340;12.326;2022-08-01T15:21:08;39.10;34.10
15997;DHT22;8103;51.340;12.326;2022-08-01T15:23:42;38.80;34.60
15997;DHT22;8103;51.340;12.326;2022-08-01T15:26:10;38.20;35.30
15997;DHT22;8103;51.340;12.326;2022-08-01T15:28:41;36.90;36.90
15997;DHT22;8103;51.340;12.326;2022-08-01T15:31:12;35.70;38.60
15997;DHT22;8103;51.340;12.326;2022-08-01T15:33:40;34.80;40.10
15997;DHT22;8103;51.340;12.326;2022-08-01T15:36:07;34.10;41.50
15997;DHT22;8103;51.340;12.326;2022-08-01T15:38:37;33.50;42.30
15997;DHT22;8103;51.340;12.326;2022-08-01T15:41:04;33.00;43.40
15997;DHT22;8103;51.340;12.326;2022-08-01T15:43:31;32.70;44.10
15997;DHT22;8103;51.340;12.326;2022-08-01T15:45:58;32.40;44.60
15997;DHT22;8103;51.340;12.326;2022-08-01T15:48:25;32.10;45.40
15997;DHT22;8103;51.340;12.326;2022-08-01T15:50:52;31.70;46.10
15997;DHT22;8103;51.340;12.326;2022-08-01T15:53:19;31.40;47.10
15997;DHT22;8103;51.340;12.326;2022-08-01T15:55:46;31.10;47.50
15997;DHT22;8103;51.340;12.326;2022-08-01T15:58:14;30.70;47.90
15997;DHT22;8103;51.340;12.326;2022-08-01T16:00:41;30.30;48.90
15997;DHT22;8103;51.340;12.326;2022-08-01T16:03:08;30.00;49.60
15997;DHT22;8103;51.340;12.326;2022-08-01T16:05:36;29.80;50.40
15997;DHT22;8103;51.340;12.326;2022-08-01T16:08:10;29.50;51.00
15997;DHT22;8103;51.340;12.326;2022-08-01T16:10:39;29.40;51.40
15997;DHT22;8103;51.340;12.326;2022-08-01T16:13:08;29.20;52.10
15997;DHT22;8103;51.340;12.326;2022-08-01T16:15:35;29.20;52.40